Terminal Aerodrome Forecast
Issued by NWS

Home | Current Version | Previous Version | Text Only | Print | Product List | Glossary On
Versions: 1 2 3 4 5 6 7 8 9 10 11 12 13 14 15 16 17 18 19 20 21 22 23 24 25 26 27 28
000
FTUS45 KSLC 162321
TAFENV
TAF
KENV 162321Z 1700/1724 22020G30KT P6SM SCT080 SCT120
     FM170200 28030G40KT P6SM SCT080 BKN120
     FM170900 31015G25KT P6SM SCT080 SCT120
     FM171400 32015KT P6SM SCT080 SCT120
     FM172000 17010KT P6SM SCT100=

USA.gov is the U.S. government's official web portal to all federal, state and local government web resources and services.